Time;durP1;ratioP1;P1;durP2;ratioP2;P2;SDS_P1;SDS_P2;PMS_P1;PMS_P2;Temp;Humidity;BMP_temperature;BMP_pressure;BME280_temperature;BME280_humidity;BME280_pressure;Samples;Min_cycle;Max_cycle;Signal;HPM_P1;HPM_P2
2021/11/22 00:02:17;;;;;;;;;;;;;;;;;;5001234;28;19925;-68
2021/11/22 00:04:44;;;;;;;;;;;;;;;;;;5002313;28;20024;-69
2021/11/22 00:07:12;;;;;;;;;;;;;;;;;;5008133;28;19952;-66
2021/11/22 00:09:39;;;;;;;;;;;;;;;;;;5009886;28;19926;-69
2021/11/22 00:12:06;;;;;;;;;;;;;;;;;;5010509;28;19929;-69
2021/11/22 00:14:33;;;;;;;;;;;;;;;;;;5004039;28;20462;-67
2021/11/22 00:17:00;;;;;;;;;;;;;;;;;;5005455;28;19935;-67
2021/11/22 00:19:27;;;;;;;;;;;;;;;;;;5007419;28;19932;-68
2021/11/22 00:21:54;;;;;;;;;;;;;;;;;;5011150;28;19926;-66
2021/11/22 00:24:21;;;;;;;;;;;;;;;;;;5012015;28;20316;-68
2021/11/22 00:26:48;;;;;;;;;;;;;;;;;;5017562;28;20023;-68
2021/11/22 00:29:15;;;;;;;;;;;;;;;;;;5017336;28;19939;-68
2021/11/22 00:31:46;;;;;;;;;;;;;;;;;;5004815;28;19929;-67
2021/11/22 00:34:13;;;;;;;;;;;;;;;;;;5008277;28;20040;-67
2021/11/22 00:36:40;;;;;;;;;;;;;;;;;;5006615;28;20292;-68
2021/11/22 00:39:07;;;;;;;;;;;;;;;;;;5011083;28;19932;-67
2021/11/22 00:41:34;;;;;;;;;;;;;;;;;;5009961;28;19926;-67
2021/11/22 00:44:01;;;;;;;;;;;;;;;;;;5008254;28;19926;-67
2021/11/22 00:46:28;;;;;;;;;;;;;;;;;;5011179;28;20037;-67
2021/11/22 00:48:55;;;;;;;;;;;;;;;;;;5006945;28;19925;-67
2021/11/22 00:51:22;;;;;;;;;;;;;;;;;;5005203;28;19968;-67
2021/11/22 00:53:49;;;;;;;;;;;;;;;;;;5008529;28;19925;-67
2021/11/22 00:56:18;;;;;;;;;;;;;;;;;;5009116;28;19926;-68
2021/11/22 00:58:45;;;;;;;;;;;;;;;;;;5012914;28;20064;-68
2021/11/22 01:01:12;;;;;;;;;;;;;;;;;;4997607;28;19926;-68
2021/11/22 01:03:38;;;;;;;;;;;;;;;;;;5007556;28;20035;-69
2021/11/22 01:06:05;;;;;;;;;;;;;;;;;;5003898;28;19926;-68
2021/11/22 01:08:32;;;;;;;;;;;;;;;;;;5009498;28;19940;-68
2021/11/22 01:10:59;;;;;;;;;;;;;;;;;;5004803;28;19948;-68
2021/11/22 01:13:26;;;;;;;;;;;;;;;;;;5004040;28;19925;-68
2021/11/22 01:15:53;;;;;;;;;;;;;;;;;;5009472;28;19926;-67
2021/11/22 01:18:20;;;;;;;;;;;;;;;;;;5007534;28;19925;-68
2021/11/22 01:20:47;;;;;;;;;;;;;;;;;;5004216;28;20421;-68
2021/11/22 01:23:14;;;;;;;;;;;;;;;;;;5003068;28;19988;-68
2021/11/22 01:25:41;;;;;;;;;;;;;;;;;;5005531;28;19933;-69
2021/11/22 01:28:08;;;;;;;;;;;;;;;;;;5007146;28;20016;-70
2021/11/22 01:30:35;;;;;;;;;;;;;;;;;;5004293;28;19926;-67
2021/11/22 01:33:02;;;;;;;;;;;;;;;;;;5002733;28;19936;-68
2021/11/22 01:35:29;;;;;;;;;;;;;;;;;;5002603;28;19925;-69
2021/11/22 01:37:56;;;;;;;;;;;;;;;;;;5005161;28;19925;-68
2021/11/22 01:40:23;;;;;;;;;;;;;;;;;;5006123;28;20309;-69
2021/11/22 01:42:50;;;;;;;;;;;;;;;;;;5007111;28;19929;-68
2021/11/22 01:45:17;;;;;;;;;;;;;;;;;;5009263;28;19926;-66
2021/11/22 01:47:44;;;;;;;;;;;;;;;;;;5006823;28;19926;-70
2021/11/22 01:50:11;;;;;;;;;;;;;;;;;;5000592;28;19926;-67
2021/11/22 01:52:39;;;;;;;;;;;;;;;;;;5007097;28;19926;-68
2021/11/22 01:55:06;;;;;;;;;;;;;;;;;;5001376;28;20024;-68
2021/11/22 01:57:34;;;;;;;;;;;;;;;;;;5006102;28;20321;-67
2021/11/22 02:00:01;;;;;;;;;;;;;;;;;;4999354;28;19951;-68
2021/11/22 02:02:28;;;;;;;;;;;;;;;;;;5007940;28;20309;-69
2021/11/22 02:04:55;;;;;;;;;;;;;;;;;;5004572;28;20297;-69
2021/11/22 02:07:24;;;;;;;;;;;;;;;;;;5005418;28;20370;-68
2021/11/22 02:09:51;;;;;;;;;;;;;;;;;;5003406;28;19926;-69
2021/11/22 02:12:18;;;;;;;;;;;;;;;;;;5007466;28;19926;-68
2021/11/22 02:14:45;;;;;;;;;;;;;;;;;;5000246;28;19929;-68
2021/11/22 02:17:12;;;;;;;;;;;;;;;;;;5002249;28;19925;-68
2021/11/22 02:19:39;;;;;;;;;;;;;;;;;;5006662;28;19925;-68
2021/11/22 02:22:06;;;;;;;;;;;;;;;;;;5004890;28;19953;-68
2021/11/22 02:24:33;;;;;;;;;;;;;;;;;;5003752;28;19934;-69
2021/11/22 02:27:00;;;;;;;;;;;;;;;;;;5006499;28;19932;-67
2021/11/22 02:29:27;;;;;;;;;;;;;;;;;;5001666;28;20028;-67
2021/11/22 02:31:53;;;;;;;;;;;;;;;;;;4999602;28;20397;-67
2021/11/22 02:34:21;;;;;;;;;;;;;;;;;;5009243;28;19933;-67
2021/11/22 02:36:48;;;;;;;;;;;;;;;;;;5004150;28;20033;-67
2021/11/22 02:39:15;;;;;;;;;;;;;;;;;;5009637;28;19925;-68
2021/11/22 02:41:42;;;;;;;;;;;;;;;;;;5001883;28;20421;-68
2021/11/22 02:44:09;;;;;;;;;;;;;;;;;;5003520;28;20298;-68
2021/11/22 02:46:36;;;;;;;;;;;;;;;;;;5007118;28;20397;-67
2021/11/22 02:49:03;;;;;;;;;;;;;;;;;;5004072;28;19937;-69
2021/11/22 02:51:30;;;;;;;;;;;;;;;;;;5001033;28;19932;-69
2021/11/22 02:53:57;;;;;;;;;;;;;;;;;;5003987;28;19925;-68
2021/11/22 02:56:24;;;;;;;;;;;;;;;;;;5009599;28;19931;-67
2021/11/22 02:58:51;;;;;;;;;;;;;;;;;;5003869;28;19926;-66
2021/11/22 03:01:17;;;;;;;;;;;;;;;;;;5002134;28;19925;-67
2021/11/22 03:03:44;;;;;;;;;;;;;;;;;;5008119;28;19936;-67
2021/11/22 03:06:11;;;;;;;;;;;;;;;;;;4996586;28;19936;-67
2021/11/22 03:08:38;;;;;;;;;;;;;;;;;;5007742;28;19925;-69
2021/11/22 03:11:05;;;;;;;;;;;;;;;;;;4996656;28;19929;-68
2021/11/22 03:13:32;;;;;;;;;;;;;;;;;;5005145;28;19930;-68
2021/11/22 03:15:59;;;;;;;;;;;;;;;;;;5004301;28;20406;-67
2021/11/22 03:18:26;;;;;;;;;;;;;;;;;;5004064;28;19925;-67
2021/11/22 03:20:53;;;;;;;;;;;;;;;;;;5002129;28;20287;-67
2021/11/22 03:23:20;;;;;;;;;;;;;;;;;;5005060;28;20242;-69
2021/11/22 03:25:47;;;;;;;;;;;;;;;;;;5006581;28;19925;-68
2021/11/22 03:28:16;;;;;;;;;;;;;;;;;;5004048;28;19948;-68
2021/11/22 03:30:43;;;;;;;;;;;;;;;;;;4999000;28;19929;-68
2021/11/22 03:33:10;;;;;;;;;;;;;;;;;;5003591;28;19948;-68
2021/11/22 03:35:37;;;;;;;;;;;;;;;;;;5003532;28;20317;-68
2021/11/22 03:38:05;;;;;;;;;;;;;;;;;;5006266;28;20019;-67
2021/11/22 03:40:32;;;;;;;;;;;;;;;;;;5004265;28;20015;-68
2021/11/22 03:43:12;;;;;;;;;;;;;;;;;;4998996;28;19968;-67
2021/11/22 03:45:39;;;;;;;;;;;;;;;;;;4998646;28;19933;-68
2021/11/22 03:48:06;;;;;;;;;;;;;;;;;;5004495;28;19926;-69
2021/11/22 03:50:33;;;;;;;;;;;;;;;;;;4996877;28;19926;-68
2021/11/22 03:53:00;;;;;;;;;;;;;;;;;;4998160;28;19926;-67
2021/11/22 03:55:28;;;;;;;;;;;;;;;;;;5011071;28;20024;-68
2021/11/22 03:57:54;;;;;;;;;;;;;;;;;;5000510;28;19925;-67
2021/11/22 04:00:22;;;;;;;;;;;;;;;;;;4999474;28;20434;-68
2021/11/22 04:02:49;;;;;;;;;;;;;;;;;;4998005;28;19980;-67
2021/11/22 04:05:16;;;;;;;;;;;;;;;;;;5001648;28;19941;-68
2021/11/22 04:07:43;;;;;;;;;;;;;;;;;;5004817;28;19939;-67
2021/11/22 04:10:10;;;;;;;;;;;;;;;;;;5000942;28;19926;-68
2021/11/22 04:12:36;;;;;;;;;;;;;;;;;;5006815;28;20377;-66
2021/11/22 04:15:03;;;;;;;;;;;;;;;;;;5008283;28;19925;-68
2021/11/22 04:17:30;;;;;;;;;;;;;;;;;;5002770;28;19932;-68
2021/11/22 04:19:57;;;;;;;;;;;;;;;;;;4996604;28;19926;-67
2021/11/22 04:22:24;;;;;;;;;;;;;;;;;;5001327;28;19926;-68
2021/11/22 04:24:51;;;;;;;;;;;;;;;;;;5004925;28;19926;-67
2021/11/22 04:27:18;;;;;;;;;;;;;;;;;;4998549;28;20381;-68
2021/11/22 04:29:46;;;;;;;;;;;;;;;;;;5005076;28;19947;-68
2021/11/22 04:32:13;;;;;;;;;;;;;;;;;;5048873;22;19940;-66
2021/11/22 04:34:40;;;;;;;;;;;;;;;;;;5040786;28;20380;-66
2021/11/22 04:37:07;;;;;;;;;;;;;;;;;;5045985;28;19925;-67
2021/11/22 04:39:34;;;;;;;;;;;;;;;;;;5048114;28;19931;-67
2021/11/22 04:42:01;;;;;;;;;;;;;;;;;;5026846;28;19929;-66
2021/11/22 04:44:27;;;;;;;;;;;;;;;;;;5025891;28;19937;-67
2021/11/22 04:46:54;;;;;;;;;;;;;;;;;;5018098;28;19932;-66
2021/11/22 04:49:21;;;;;;;;;;;;;;;;;;5021308;28;19933;-66
2021/11/22 04:51:48;;;;;;;;;;;;;;;;;;5013113;28;20217;-66
2021/11/22 04:54:15;;;;;;;;;;;;;;;;;;5020035;28;19933;-66
2021/11/22 04:56:42;;;;;;;;;;;;;;;;;;5025912;28;19929;-66
2021/11/22 04:59:09;;;;;;;;;;;;;;;;;;5021369;28;19932;-66
2021/11/22 05:01:36;;;;;;;;;;;;;;;;;;5022631;28;20297;-66
2021/11/22 05:04:03;;;;;;;;;;;;;;;;;;5021496;28;19932;-66
2021/11/22 05:06:30;;;;;;;;;;;;;;;;;;5028365;28;20088;-66
2021/11/22 05:08:57;;;;;;;;;;;;;;;;;;5025777;28;20011;-66
2021/11/22 05:11:24;;;;;;;;;;;;;;;;;;5022016;28;20321;-67
2021/11/22 05:13:51;;;;;;;;;;;;;;;;;;5022840;28;20028;-67
2021/11/22 05:16:18;;;;;;;;;;;;;;;;;;5024108;28;19940;-66
2021/11/22 05:18:45;;;;;;;;;;;;;;;;;;5027483;28;19925;-66
2021/11/22 05:21:12;;;;;;;;;;;;;;;;;;5027080;28;20393;-66
2021/11/22 05:23:39;;;;;;;;;;;;;;;;;;5022711;28;20304;-67
2021/11/22 05:26:06;;;;;;;;;;;;;;;;;;5021528;28;19935;-67
2021/11/22 05:28:33;;;;;;;;;;;;;;;;;;5021001;28;19925;-67
2021/11/22 05:31:00;;;;;;;;;;;;;;;;;;5024861;28;19926;-67
2021/11/22 05:33:27;;;;;;;;;;;;;;;;;;5025713;28;20016;-66
2021/11/22 05:35:54;;;;;;;;;;;;;;;;;;5027971;28;19976;-67
2021/11/22 05:38:21;;;;;;;;;;;;;;;;;;5024641;28;19929;-67
2021/11/22 05:40:48;;;;;;;;;;;;;;;;;;5020645;28;20301;-67
2021/11/22 05:43:15;;;;;;;;;;;;;;;;;;5023844;28;19933;-67
2021/11/22 05:45:42;;;;;;;;;;;;;;;;;;5025672;28;19939;-67
2021/11/22 05:48:09;;;;;;;;;;;;;;;;;;5018999;28;19932;-67
2021/11/22 05:50:36;;;;;;;;;;;;;;;;;;5025061;28;20341;-67
2021/11/22 05:53:04;;;;;;;;;;;;;;;;;;5018927;28;20313;-67
2021/11/22 05:55:34;;;;;;;;;;;;;;;;;;5028861;28;19937;-67
2021/11/22 05:58:02;;;;;;;;;;;;;;;;;;5026671;28;20031;-67
2021/11/22 06:00:29;;;;;;;;;;;;;;;;;;5025879;28;19929;-66
2021/11/22 06:02:56;;;;;;;;;;;;;;;;;;5024378;28;20777;-66
2021/11/22 06:05:23;;;;;;;;;;;;;;;;;;5027910;28;19926;-66
2021/11/22 06:07:50;;;;;;;;;;;;;;;;;;5031220;28;19931;-66
2021/11/22 06:10:17;;;;;;;;;;;;;;;;;;5021903;28;19979;-66
2021/11/22 06:12:44;;;;;;;;;;;;;;;;;;5020130;28;20019;-67
2021/11/22 06:15:11;;;;;;;;;;;;;;;;;;5021300;28;19936;-67
2021/11/22 06:17:37;;;;;;;;;;;;;;;;;;5026233;28;20329;-68
2021/11/22 06:20:04;;;;;;;;;;;;;;;;;;5025680;28;20404;-67
2021/11/22 06:22:31;;;;;;;;;;;;;;;;;;5021864;28;19932;-67
2021/11/22 06:24:58;;;;;;;;;;;;;;;;;;5024585;28;20061;-66
2021/11/22 06:27:25;;;;;;;;;;;;;;;;;;5023909;28;19925;-66
2021/11/22 06:29:52;;;;;;;;;;;;;;;;;;5018387;28;20373;-66
2021/11/22 06:32:19;;;;;;;;;;;;;;;;;;5019344;28;19933;-66
2021/11/22 06:34:46;;;;;;;;;;;;;;;;;;5020284;28;19929;-66
2021/11/22 06:37:13;;;;;;;;;;;;;;;;;;5028105;28;19925;-67
2021/11/22 06:39:40;;;;;;;;;;;;;;;;;;5023581;28;19925;-66
2021/11/22 06:42:07;;;;;;;;;;;;;;;;;;5017586;28;19929;-67
2021/11/22 06:44:34;;;;;;;;;;;;;;;;;;5021271;28;20381;-66
2021/11/22 06:47:01;;;;;;;;;;;;;;;;;;5026747;28;20401;-66
2021/11/22 06:49:28;;;;;;;;;;;;;;;;;;5027733;28;20301;-66
2021/11/22 06:51:55;;;;;;;;;;;;;;;;;;5026413;28;20293;-65
2021/11/22 06:54:22;;;;;;;;;;;;;;;;;;5022337;28;20282;-66
2021/11/22 06:56:49;;;;;;;;;;;;;;;;;;5025166;28;19925;-66
2021/11/22 06:59:16;;;;;;;;;;;;;;;;;;5022346;28;19926;-66
2021/11/22 07:01:43;;;;;;;;;;;;;;;;;;5025095;28;19931;-65
2021/11/22 07:04:10;;;;;;;;;;;;;;;;;;5028180;28;19925;-65
2021/11/22 07:06:37;;;;;;;;;;;;;;;;;;5028956;28;20332;-65
2021/11/22 07:09:04;;;;;;;;;;;;;;;;;;5023653;28;20041;-66
2021/11/22 07:11:31;;;;;;;;;;;;;;;;;;5018604;28;19925;-66
2021/11/22 07:13:58;;;;;;;;;;;;;;;;;;5024174;28;19925;-65
2021/11/22 07:16:25;;;;;;;;;;;;;;;;;;5021673;28;20368;-65
2021/11/22 07:18:51;;;;;;;;;;;;;;;;;;5027015;28;19933;-65
2021/11/22 07:21:18;;;;;;;;;;;;;;;;;;5027977;28;19925;-67
2021/11/22 07:23:45;;;;;;;;;;;;;;;;;;5024217;28;19925;-66
2021/11/22 07:26:12;;;;;;;;;;;;;;;;;;5025128;28;20325;-66
2021/11/22 07:28:39;;;;;;;;;;;;;;;;;;5023676;28;19935;-66
2021/11/22 07:31:06;;;;;;;;;;;;;;;;;;5026049;28;20416;-66
2021/11/22 07:33:33;;;;;;;;;;;;;;;;;;5025113;28;20411;-66
2021/11/22 07:36:00;;;;;;;;;;;;;;;;;;5018140;28;20293;-66
2021/11/22 07:38:27;;;;;;;;;;;;;;;;;;5021073;28;20364;-66
2021/11/22 07:40:55;;;;;;;;;;;;;;;;;;5020631;28;19936;-66
2021/11/22 07:43:21;;;;;;;;;;;;;;;;;;5021002;28;20385;-66
2021/11/22 07:45:48;;;;;;;;;;;;;;;;;;5023964;28;19935;-67
2021/11/22 07:48:16;;;;;;;;;;;;;;;;;;5023746;28;19932;-67
2021/11/22 07:50:43;;;;;;;;;;;;;;;;;;5022800;28;20344;-67
2021/11/22 07:53:10;;;;;;;;;;;;;;;;;;5027708;28;19939;-67
2021/11/22 07:55:37;;;;;;;;;;;;;;;;;;5024701;28;19926;-67
2021/11/22 07:58:03;;;;;;;;;;;;;;;;;;5023368;28;19926;-66
2021/11/22 08:00:30;;;;;;;;;;;;;;;;;;5021694;28;19925;-65
2021/11/22 08:02:57;;;;;;;;;;;;;;;;;;5022511;28;19931;-66
2021/11/22 08:05:26;;;;;;;;;;;;;;;;;;5023748;28;19952;-66
2021/11/22 08:07:55;;;;;;;;;;;;;;;;;;5020389;28;19976;-66
2021/11/22 08:10:29;;;;;;;;;;;;;;;;;;5021871;28;19944;-66
2021/11/22 08:12:56;;;;;;;;;;;;;;;;;;5025661;28;20008;-66
2021/11/22 08:15:23;;;;;;;;;;;;;;;;;;5022469;28;19931;-66
2021/11/22 08:17:50;;;;;;;;;;;;;;;;;;5019903;28;19925;-66
2021/11/22 08:20:17;;;;;;;;;;;;;;;;;;5024357;28;19925;-66
2021/11/22 08:22:45;;;;;;;;;;;;;;;;;;5022951;28;19931;-66
2021/11/22 08:25:12;;;;;;;;;;;;;;;;;;5022396;28;19926;-66
2021/11/22 08:27:39;;;;;;;;;;;;;;;;;;5023129;28;19932;-66
2021/11/22 08:30:06;;;;;;;;;;;;;;;;;;5020810;28;19929;-66
2021/11/22 08:32:33;;;;;;;;;;;;;;;;;;5019795;28;19925;-66
2021/11/22 08:35:01;;;;;;;;;;;;;;;;;;5021416;28;19925;-66
2021/11/22 08:37:28;;;;;;;;;;;;;;;;;;5023647;28;19999;-66
2021/11/22 08:39:54;;;;;;;;;;;;;;;;;;5025245;28;19940;-66
2021/11/22 08:42:22;;;;;;;;;;;;;;;;;;5020008;28;19925;-65
2021/11/22 08:44:49;;;;;;;;;;;;;;;;;;5018037;28;19937;-65
2021/11/22 08:47:16;;;;;;;;;;;;;;;;;;5025535;28;20217;-66
2021/11/22 08:49:43;;;;;;;;;;;;;;;;;;5021496;28;19933;-65
2021/11/22 08:52:10;;;;;;;;;;;;;;;;;;5025111;28;19951;-65
2021/11/22 08:54:37;;;;;;;;;;;;;;;;;;5020259;28;20445;-66
2021/11/22 08:57:06;;;;;;;;;;;;;;;;;;5025209;28;19931;-65
2021/11/22 08:59:33;;;;;;;;;;;;;;;;;;5024880;28;19935;-66
2021/11/22 09:02:00;;;;;;;;;;;;;;;;;;5021538;28;20293;-66
2021/11/22 09:04:27;;;;;;;;;;;;;;;;;;5029260;28;19925;-66
2021/11/22 09:06:54;;;;;;;;;;;;;;;;;;5027667;28;19975;-66
2021/11/22 09:09:21;;;;;;;;;;;;;;;;;;5026450;28;19936;-66
2021/11/22 09:11:48;;;;;;;;;;;;;;;;;;5026160;28;19926;-66
2021/11/22 09:14:15;;;;;;;;;;;;;;;;;;5021078;28;20028;-66
2021/11/22 09:16:41;;;;;;;;;;;;;;;;;;5025846;28;19941;-66
2021/11/22 09:19:08;;;;;;;;;;;;;;;;;;5024490;28;20515;-66
2021/11/22 09:21:35;;;;;;;;;;;;;;;;;;5027761;28;19929;-66
2021/11/22 09:24:02;;;;;;;;;;;;;;;;;;5025859;28;19928;-65
2021/11/22 09:26:29;;;;;;;;;;;;;;;;;;5027297;28;20019;-65
2021/11/22 09:28:59;;;;;;;;;;;;;;;;;;5025693;28;19929;-66
2021/11/22 09:31:26;;;;;;;;;;;;;;;;;;5012882;28;19925;-66
2021/11/22 09:33:53;;;;;;;;;;;;;;;;;;5021027;28;19941;-66
2021/11/22 09:36:20;;;;;;;;;;;;;;;;;;5024732;28;19925;-66
2021/11/22 09:38:47;;;;;;;;;;;;;;;;;;5021339;28;19929;-66
2021/11/22 09:41:14;;;;;;;;;;;;;;;;;;5021681;28;19925;-66
2021/11/22 09:43:41;;;;;;;;;;;;;;;;;;5022358;28;19933;-66
2021/11/22 09:46:08;;;;;;;;;;;;;;;;;;5021882;28;19932;-65
2021/11/22 09:48:35;;;;;;;;;;;;;;;;;;5023620;28;19940;-65
2021/11/22 09:51:02;;;;;;;;;;;;;;;;;;5021674;28;20275;-66
2021/11/22 09:53:29;;;;;;;;;;;;;;;;;;5022531;28;19933;-66
2021/11/22 09:55:56;;;;;;;;;;;;;;;;;;5022739;28;19926;-66
2021/11/22 09:58:23;;;;;;;;;;;;;;;;;;5028068;28;19933;-66
2021/11/22 10:00:50;;;;;;;;;;;;;;;;;;5024785;28;19931;-66
2021/11/22 10:03:17;;;;;;;;;;;;;;;;;;5022125;28;20313;-66
2021/11/22 10:05:44;;;;;;;;;;;;;;;;;;5028167;28;19925;-65
2021/11/22 10:08:11;;;;;;;;;;;;;;;;;;5025147;28;20013;-65
2021/11/22 10:10:38;;;;;;;;;;;;;;;;;;5027895;28;20064;-66
2021/11/22 10:13:05;;;;;;;;;;;;;;;;;;5028556;28;19925;-66
2021/11/22 10:15:32;;;;;;;;;;;;;;;;;;5022665;28;19929;-65
2021/11/22 10:18:00;;;;;;;;;;;;;;;;;;5023737;28;20004;-66
2021/11/22 10:20:27;;;;;;;;;;;;;;;;;;5026602;28;20016;-66
2021/11/22 10:22:54;;;;;;;;;;;;;;;;;;5021995;28;20565;-66
2021/11/22 10:25:21;;;;;;;;;;;;;;;;;;5021482;28;19925;-66
2021/11/22 10:27:49;;;;;;;;;;;;;;;;;;5023231;28;19929;-66
2021/11/22 10:30:16;;;;;;;;;;;;;;;;;;5019848;28;20354;-67
2021/11/22 10:32:43;;;;;;;;;;;;;;;;;;5046758;22;19933;-64
2021/11/22 10:35:10;;;;;;;;;;;;;;;;;;5043257;28;20364;-64
2021/11/22 10:37:37;;;;;;;;;;;;;;;;;;5048505;28;19925;-65
2021/11/22 10:40:04;;;;;;;;;;;;;;;;;;5047247;28;19925;-65
2021/11/22 10:42:35;;;;;;;;;;;;;;;;;;5033912;28;19931;-65
2021/11/22 10:45:02;;;;;;;;;;;;;;;;;;5027853;28;19925;-64
2021/11/22 10:47:29;;;;;;;;;;;;;;;;;;5034725;28;19999;-66
2021/11/22 10:50:00;;;;;;;;;;;;;;;;;;5040403;28;19947;-65
2021/11/22 10:52:34;;;;;;;;;;;;;;;;;;5031785;28;19964;-63
2021/11/22 10:55:01;;;;;;;;;;;;;;;;;;5039104;28;19941;-64
2021/11/22 10:57:28;;;;;;;;;;;;;;;;;;5039218;28;19980;-67
2021/11/22 10:59:55;;;;;;;;;;;;;;;;;;5039237;28;19933;-64
2021/11/22 11:02:22;;;;;;;;;;;;;;;;;;5042168;28;19931;-64
2021/11/22 11:04:52;;;;;;;;;;;;;;;;;;5039170;28;19932;-65
2021/11/22 11:07:19;;;;;;;;;;;;;;;;;;5044674;28;20449;-65
2021/11/22 11:09:45;;;;;;;;;;;;;;;;;;5036944;28;19936;-65
2021/11/22 11:12:12;;;;;;;;;;;;;;;;;;5030506;28;19929;-65
2021/11/22 11:14:39;;;;;;;;;;;;;;;;;;5033788;28;19925;-63
2021/11/22 11:17:06;;;;;;;;;;;;;;;;;;5029799;28;19941;-64
2021/11/22 11:19:33;;;;;;;;;;;;;;;;;;5038381;28;20003;-62
2021/11/22 11:22:00;;;;;;;;;;;;;;;;;;5033292;28;19935;-63
2021/11/22 11:24:29;;;;;;;;;;;;;;;;;;5034577;28;19929;-63
2021/11/22 11:26:56;;;;;;;;;;;;;;;;;;5029240;28;19929;-64
2021/11/22 11:29:23;;;;;;;;;;;;;;;;;;5030199;28;19929;-62
2021/11/22 11:31:50;;;;;;;;;;;;;;;;;;5032576;28;20419;-62
2021/11/22 11:34:17;;;;;;;;;;;;;;;;;;5033004;28;20027;-62
2021/11/22 11:36:44;;;;;;;;;;;;;;;;;;5025066;28;20080;-63
2021/11/22 11:39:11;;;;;;;;;;;;;;;;;;5032685;28;19925;-65
2021/11/22 11:41:38;;;;;;;;;;;;;;;;;;5039656;28;19936;-63
2021/11/22 11:44:05;;;;;;;;;;;;;;;;;;5034335;28;20451;-63
2021/11/22 11:46:32;;;;;;;;;;;;;;;;;;5021867;28;20302;-63
2021/11/22 11:49:00;;;;;;;;;;;;;;;;;;5035998;28;19926;-62
2021/11/22 11:51:26;;;;;;;;;;;;;;;;;;5032773;28;19929;-63
2021/11/22 11:53:53;;;;;;;;;;;;;;;;;;5031797;28;19936;-65
2021/11/22 11:56:20;;;;;;;;;;;;;;;;;;5031545;28;20016;-65
2021/11/22 11:58:47;;;;;;;;;;;;;;;;;;5036347;28;20305;-66
2021/11/22 12:01:14;;;;;;;;;;;;;;;;;;5030309;28;19931;-63
2021/11/22 12:03:41;;;;;;;;;;;;;;;;;;5032307;28;20081;-64
2021/11/22 12:06:08;;;;;;;;;;;;;;;;;;5033347;28;19925;-63
2021/11/22 12:08:35;;;;;;;;;;;;;;;;;;5037814;28;19936;-63
2021/11/22 12:11:02;;;;;;;;;;;;;;;;;;5027098;28;19925;-64
2021/11/22 12:13:29;;;;;;;;;;;;;;;;;;5028560;28;20024;-65
2021/11/22 12:15:56;;;;;;;;;;;;;;;;;;5036753;28;20337;-66
2021/11/22 12:18:24;;;;;;;;;;;;;;;;;;5044009;28;20004;-64
2021/11/22 12:20:51;;;;;;;;;;;;;;;;;;5035480;28;19929;-66
2021/11/22 12:23:17;;;;;;;;;;;;;;;;;;5035791;28;19925;-66
2021/11/22 12:25:44;;;;;;;;;;;;;;;;;;5035798;28;19936;-66
2021/11/22 12:28:11;;;;;;;;;;;;;;;;;;5031793;28;20400;-66
2021/11/22 12:30:38;;;;;;;;;;;;;;;;;;5040530;28;19947;-65
2021/11/22 12:33:05;;;;;;;;;;;;;;;;;;5023710;28;19932;-64
2021/11/22 12:35:32;;;;;;;;;;;;;;;;;;5033629;28;19931;-65
2021/11/22 12:37:59;;;;;;;;;;;;;;;;;;5037793;28;20351;-65
2021/11/22 12:40:27;;;;;;;;;;;;;;;;;;5028128;28;19929;-64
2021/11/22 12:42:54;;;;;;;;;;;;;;;;;;5034020;28;19925;-64
2021/11/22 12:45:21;;;;;;;;;;;;;;;;;;5031693;28;19925;-64
2021/11/22 12:47:48;;;;;;;;;;;;;;;;;;5038710;28;19929;-65
2021/11/22 12:50:15;;;;;;;;;;;;;;;;;;5040955;28;19936;-65
2021/11/22 12:52:42;;;;;;;;;;;;;;;;;;5036192;28;19936;-64
2021/11/22 12:55:09;;;;;;;;;;;;;;;;;;5046803;28;19932;-64
2021/11/22 12:57:36;;;;;;;;;;;;;;;;;;5027023;28;19929;-65
2021/11/22 13:00:03;;;;;;;;;;;;;;;;;;5034763;28;19924;-65
2021/11/22 13:02:30;;;;;;;;;;;;;;;;;;5029671;28;20305;-64
2021/11/22 13:04:57;;;;;;;;;;;;;;;;;;5036317;28;20408;-63
2021/11/22 13:07:24;;;;;;;;;;;;;;;;;;5035336;28;19932;-65
2021/11/22 13:09:51;;;;;;;;;;;;;;;;;;5039952;28;20376;-65
2021/11/22 13:12:18;;;;;;;;;;;;;;;;;;5035345;28;19925;-62
2021/11/22 13:14:50;;;;;;;;;;;;;;;;;;5035554;28;19926;-65
2021/11/22 13:17:17;;;;;;;;;;;;;;;;;;5037889;28;20293;-65
2021/11/22 13:19:44;;;;;;;;;;;;;;;;;;5031813;28;19994;-65
2021/11/22 13:22:11;;;;;;;;;;;;;;;;;;5036314;28;19925;-63
2021/11/22 13:24:39;;;;;;;;;;;;;;;;;;5022094;28;19929;-64
2021/11/22 13:27:08;;;;;;;;;;;;;;;;;;5034386;28;19933;-60
2021/11/22 13:29:37;;;;;;;;;;;;;;;;;;5026728;28;19929;-63
2021/11/22 13:32:08;;;;;;;;;;;;;;;;;;5027044;28;20101;-63
2021/11/22 13:34:35;;;;;;;;;;;;;;;;;;5032648;28;19932;-63
2021/11/22 13:37:02;;;;;;;;;;;;;;;;;;5029025;28;19925;-63
2021/11/22 13:39:29;;;;;;;;;;;;;;;;;;5028494;28;19925;-63
2021/11/22 13:41:56;;;;;;;;;;;;;;;;;;5036066;28;20048;-62
2021/11/22 13:44:23;;;;;;;;;;;;;;;;;;5027799;28;19925;-61
2021/11/22 13:46:50;;;;;;;;;;;;;;;;;;5030334;28;19934;-63
2021/11/22 13:49:17;;;;;;;;;;;;;;;;;;5035138;28;19936;-60
2021/11/22 13:51:44;;;;;;;;;;;;;;;;;;5033120;28;20404;-62
2021/11/22 13:54:11;;;;;;;;;;;;;;;;;;5032515;28;20392;-61
2021/11/22 13:56:38;;;;;;;;;;;;;;;;;;5032175;28;19925;-61
2021/11/22 13:59:05;;;;;;;;;;;;;;;;;;5042685;28;19925;-61
2021/11/22 14:01:32;;;;;;;;;;;;;;;;;;5038517;28;19932;-61
2021/11/22 14:03:59;;;;;;;;;;;;;;;;;;5038583;28;19971;-61
2021/11/22 14:06:26;;;;;;;;;;;;;;;;;;5038186;28;20428;-64
2021/11/22 14:08:53;;;;;;;;;;;;;;;;;;5032448;28;20356;-64
2021/11/22 14:11:20;;;;;;;;;;;;;;;;;;5036101;28;19929;-64
2021/11/22 14:13:47;;;;;;;;;;;;;;;;;;5037358;28;20020;-63
2021/11/22 14:16:14;;;;;;;;;;;;;;;;;;5044524;28;19925;-64
2021/11/22 14:18:41;;;;;;;;;;;;;;;;;;5042662;28;19980;-64
2021/11/22 14:21:08;;;;;;;;;;;;;;;;;;5036875;28;20008;-65
2021/11/22 14:23:35;;;;;;;;;;;;;;;;;;5033706;28;21370;-62
2021/11/22 14:26:02;;;;;;;;;;;;;;;;;;5035971;28;19926;-63
2021/11/22 14:28:29;;;;;;;;;;;;;;;;;;5025863;28;20399;-62
2021/11/22 14:30:56;;;;;;;;;;;;;;;;;;5031593;28;19969;-64
2021/11/22 14:33:23;;;;;;;;;;;;;;;;;;5032992;28;19928;-62
2021/11/22 14:35:50;;;;;;;;;;;;;;;;;;5038196;28;20003;-64
2021/11/22 14:38:17;;;;;;;;;;;;;;;;;;5029605;28;19933;-64
2021/11/22 14:40:45;;;;;;;;;;;;;;;;;;5032636;28;19975;-64
2021/11/22 14:43:15;;;;;;;;;;;;;;;;;;5031061;28;19929;-64
2021/11/22 14:45:42;;;;;;;;;;;;;;;;;;5035040;28;20024;-64
2021/11/22 14:48:09;;;;;;;;;;;;;;;;;;5032487;28;19925;-65
2021/11/22 14:50:36;;;;;;;;;;;;;;;;;;5031123;28;19929;-65
2021/11/22 14:53:04;;;;;;;;;;;;;;;;;;5026602;28;19988;-64
2021/11/22 14:55:31;;;;;;;;;;;;;;;;;;5027553;28;19948;-65
2021/11/22 14:57:58;;;;;;;;;;;;;;;;;;5038292;28;19929;-64
2021/11/22 15:00:25;;;;;;;;;;;;;;;;;;5030447;28;19999;-65
2021/11/22 15:02:52;;;;;;;;;;;;;;;;;;5028005;28;20458;-64
2021/11/22 15:05:19;;;;;;;;;;;;;;;;;;5030935;28;20711;-65
2021/11/22 15:07:45;;;;;;;;;;;;;;;;;;5036768;28;19925;-65
2021/11/22 15:10:12;;;;;;;;;;;;;;;;;;5031374;28;20191;-63
2021/11/22 15:12:43;;;;;;;;;;;;;;;;;;5028428;28;19975;-65
2021/11/22 15:15:11;;;;;;;;;;;;;;;;;;5039018;28;20007;-61
2021/11/22 15:17:38;;;;;;;;;;;;;;;;;;5024233;28;19928;-64
2021/11/22 15:20:05;;;;;;;;;;;;;;;;;;5027291;28;19936;-65
2021/11/22 15:22:33;;;;;;;;;;;;;;;;;;5037433;28;19947;-64
2021/11/22 15:25:00;;;;;;;;;;;;;;;;;;5038387;28;20016;-63
2021/11/22 15:27:27;;;;;;;;;;;;;;;;;;5034047;28;19925;-64
2021/11/22 15:29:54;;;;;;;;;;;;;;;;;;5031405;28;20385;-63
2021/11/22 15:32:22;;;;;;;;;;;;;;;;;;5037411;28;20324;-63
2021/11/22 15:34:49;;;;;;;;;;;;;;;;;;5038078;28;20360;-63
2021/11/22 15:37:16;;;;;;;;;;;;;;;;;;5030560;28;19933;-64
2021/11/22 15:39:43;;;;;;;;;;;;;;;;;;5037312;28;19926;-62
2021/11/22 15:42:10;;;;;;;;;;;;;;;;;;5032589;28;19947;-63
2021/11/22 15:44:37;;;;;;;;;;;;;;;;;;5035080;28;19935;-62
2021/11/22 15:47:04;;;;;;;;;;;;;;;;;;5035471;28;20475;-63
2021/11/22 15:49:31;;;;;;;;;;;;;;;;;;5021891;28;20286;-63
2021/11/22 15:51:58;;;;;;;;;;;;;;;;;;5027001;28;19933;-63
2021/11/22 15:54:25;;;;;;;;;;;;;;;;;;5030241;28;19932;-63
2021/11/22 15:56:52;;;;;;;;;;;;;;;;;;5038028;28;19925;-63
2021/11/22 15:59:19;;;;;;;;;;;;;;;;;;5034534;28;20337;-63
2021/11/22 16:01:46;;;;;;;;;;;;;;;;;;5024980;28;19956;-62
2021/11/22 16:04:14;;;;;;;;;;;;;;;;;;5034208;28;20012;-62
2021/11/22 16:06:41;;;;;;;;;;;;;;;;;;5034365;28;20833;-62
2021/11/22 16:09:08;;;;;;;;;;;;;;;;;;5024235;28;19929;-60
2021/11/22 16:11:35;;;;;;;;;;;;;;;;;;5025765;28;20450;-62
2021/11/22 16:14:02;;;;;;;;;;;;;;;;;;5037265;28;20300;-64
2021/11/22 16:16:29;;;;;;;;;;;;;;;;;;5036565;28;19991;-62
2021/11/22 16:18:56;;;;;;;;;;;;;;;;;;5032008;28;19988;-63
2021/11/22 16:21:23;;;;;;;;;;;;;;;;;;5035777;28;19925;-64
2021/11/22 16:23:50;;;;;;;;;;;;;;;;;;5035250;28;19999;-63
2021/11/22 16:26:17;;;;;;;;;;;;;;;;;;5037405;28;19925;-63
2021/11/22 16:28:44;;;;;;;;;;;;;;;;;;5038613;28;19935;-62
2021/11/22 16:31:11;;;;;;;;;;;;;;;;;;5045478;22;19925;-65
2021/11/22 16:33:38;;;;;;;;;;;;;;;;;;5060709;28;19930;-66
2021/11/22 16:36:06;;;;;;;;;;;;;;;;;;5065684;28;19931;-65
2021/11/22 16:38:34;;;;;;;;;;;;;;;;;;5063187;28;19924;-65
2021/11/22 16:41:03;;;;;;;;;;;;;;;;;;5064561;28;19932;-67
2021/11/22 16:43:29;;;;;;;;;;;;;;;;;;5064210;28;19932;-65
2021/11/22 16:45:56;;;;;;;;;;;;;;;;;;5063898;28;20402;-65